createdAt,value
2023-03-24T00:02:43.064Z,97644.70
2023-03-24T00:05:46.265Z,97650.19
2023-03-24T00:08:49.412Z,97648.34
2023-03-24T00:11:52.464Z,97650.77
2023-03-24T00:14:55.691Z,97650.00
2023-03-24T00:17:59.218Z,97643.09
2023-03-24T00:21:02.251Z,97643.44
2023-03-24T00:24:09.408Z,97641.27
2023-03-24T00:27:17.615Z,97639.61
2023-03-24T00:30:21.097Z,97642.61
2023-03-24T00:33:25.368Z,97643.48
2023-03-24T00:36:29.584Z,97635.02
2023-03-24T00:39:33.348Z,97632.84
2023-03-24T00:42:37.045Z,97626.40
2023-03-24T00:45:46.248Z,97618.95
2023-03-24T00:48:51.227Z,97613.20
2023-03-24T00:51:54.332Z,97606.80
2023-03-24T00:54:58.349Z,97597.76
2023-03-24T00:58:02.712Z,97596.75
2023-03-24T01:01:06.882Z,97585.27
2023-03-24T01:04:10.624Z,97577.63
2023-03-24T01:07:18.282Z,97573.40
2023-03-24T01:10:26.505Z,97570.31
2023-03-24T01:13:30.362Z,97569.23
2023-03-24T01:16:33.432Z,97566.89
2023-03-24T01:19:36.510Z,97567.19
2023-03-24T01:22:40.403Z,97568.01
2023-03-24T01:25:45.513Z,97568.83
2023-03-24T01:28:48.565Z,97569.55
2023-03-24T01:31:51.837Z,97565.20
2023-03-24T01:34:54.834Z,97565.30
2023-03-24T01:37:58.902Z,97560.48
2023-03-24T01:41:02.782Z,97561.84
2023-03-24T01:44:24.354Z,97562.90
2023-03-24T01:47:27.522Z,97555.70
2023-03-24T01:50:31.535Z,97550.05
2023-03-24T01:53:37.376Z,97556.52
2023-03-24T01:56:42.923Z,97554.11
2023-03-24T01:59:48.563Z,97554.89
2023-03-24T02:03:18.459Z,97554.92
2023-03-24T02:06:26.267Z,97551.73
2023-03-24T02:09:29.985Z,97552.90
2023-03-24T02:12:33.650Z,97553.66
2023-03-24T02:15:58.221Z,97551.88
2023-03-24T02:19:15.045Z,97548.94
2023-03-24T02:22:18.213Z,97545.04
2023-03-24T02:25:37.779Z,97543.58
2023-03-24T02:28:41.161Z,97544.42
2023-03-24T02:31:54.987Z,97541.34
2023-03-24T02:35:18.262Z,97535.70
2023-03-24T02:38:39.785Z,97531.64
2023-03-24T02:41:54.061Z,97532.41
2023-03-24T02:45:16.611Z,97528.92
2023-03-24T02:48:22.861Z,97527.95
2023-03-24T02:51:44.312Z,97526.67
2023-03-24T02:54:55.792Z,97516.45
2023-03-24T02:58:03.618Z,97521.00
2023-03-24T03:01:32.787Z,97516.63
2023-03-24T03:05:03.381Z,97515.69
2023-03-24T03:08:09.472Z,97518.91
2023-03-24T03:11:14.404Z,97523.89
2023-03-24T03:14:20.539Z,97527.95
2023-03-24T03:17:30.653Z,97529.76
2023-03-24T03:20:38.454Z,97527.13
2023-03-24T03:23:45.898Z,97529.30
2023-03-24T03:26:50.109Z,97530.90
2023-03-24T03:29:54.890Z,97526.86
2023-03-24T03:33:03.590Z,97529.84
2023-03-24T03:36:10.841Z,97529.39
2023-03-24T03:39:22.461Z,97532.43
2023-03-24T03:42:25.784Z,97529.67
2023-03-24T03:45:29.259Z,97532.39
2023-03-24T03:48:32.800Z,97529.30
2023-03-24T03:51:35.975Z,97525.05
2023-03-24T03:54:40.354Z,97527.51
2023-03-24T03:57:43.553Z,97528.52
2023-03-24T04:00:55.968Z,97523.23
2023-03-24T04:04:33.332Z,97523.56
2023-03-24T04:08:05.920Z,97519.85
2023-03-24T04:11:31.789Z,97517.84
2023-03-24T04:15:02.177Z,97520.22
2023-03-24T04:18:05.173Z,97517.69
2023-03-24T04:21:33.525Z,97519.42
2023-03-24T04:24:41.002Z,97515.38
2023-03-24T04:27:46.482Z,97513.52
2023-03-24T04:30:56.117Z,97512.70
2023-03-24T04:34:05.314Z,97512.92
2023-03-24T04:37:12.474Z,97512.36
2023-03-24T04:40:33.633Z,97504.87
2023-03-24T04:43:37.474Z,97503.01
2023-03-24T04:46:42.035Z,97497.42
2023-03-24T04:49:51.953Z,97495.74
2023-03-24T04:52:56.545Z,97492.45
2023-03-24T04:56:02.531Z,97486.93
2023-03-24T04:59:24.544Z,97487.63
2023-03-24T05:02:27.526Z,97490.34
2023-03-24T05:05:36.766Z,97481.51
2023-03-24T05:08:40.679Z,97484.85
2023-03-24T05:11:44.229Z,97483.79
2023-03-24T05:14:47.254Z,97482.39
2023-03-24T05:17:51.750Z,97476.40
2023-03-24T05:20:55.145Z,97476.13
2023-03-24T05:23:58.240Z,97475.04
2023-03-24T05:27:01.366Z,97478.17
2023-03-24T05:30:06.439Z,97464.86
2023-03-24T05:33:09.922Z,97465.25
2023-03-24T05:36:12.954Z,97471.66
2023-03-24T05:39:16.675Z,97470.95
2023-03-24T05:42:26.307Z,97468.00
2023-03-24T05:45:30.391Z,97463.55
2023-03-24T05:48:33.981Z,97464.96
2023-03-24T05:51:52.071Z,97464.09
2023-03-24T05:54:55.088Z,97463.39
2023-03-24T05:58:04.904Z,97457.14
2023-03-24T06:01:29.002Z,97453.08
2023-03-24T06:04:36.652Z,97457.11
2023-03-24T06:07:45.090Z,97459.80
2023-03-24T06:10:48.532Z,97468.55
2023-03-24T06:13:51.815Z,97468.88
2023-03-24T06:16:59.303Z,97465.48
2023-03-24T06:20:05.721Z,97467.25
2023-03-24T06:23:35.697Z,97461.23
2023-03-24T06:26:50.098Z,97457.17
2023-03-24T06:29:53.408Z,97455.17
2023-03-24T06:32:57.396Z,97455.31
2023-03-24T06:36:01.931Z,97452.92
2023-03-24T06:39:06.167Z,97448.27
2023-03-24T06:42:09.385Z,97452.04
2023-03-24T06:45:12.437Z,97449.30
2023-03-24T06:48:15.579Z,97455.03
2023-03-24T06:51:18.703Z,97460.64
2023-03-24T06:54:22.321Z,97465.51
2023-03-24T06:57:25.451Z,97466.36
2023-03-24T07:00:55.327Z,97470.30
2023-03-24T07:04:25.816Z,97464.56
2023-03-24T07:08:23.532Z,97462.41
2023-03-24T07:11:12.706Z,97461.40
2023-03-24T07:14:22.180Z,97463.58
2023-03-24T07:17:25.700Z,97462.83
2023-03-24T07:20:51.767Z,97466.51
2023-03-24T07:23:56.868Z,97470.42
2023-03-24T07:27:12.379Z,97460.63
2023-03-24T07:30:15.562Z,97462.13
2023-03-24T07:33:20.929Z,97456.14
2023-03-24T07:36:23.904Z,97450.46
2023-03-24T07:39:28.007Z,97447.77
2023-03-24T07:42:31.551Z,97447.70
2023-03-24T07:45:53.102Z,97446.17
2023-03-24T07:48:58.081Z,97441.91
2023-03-24T07:52:06.651Z,97440.35
2023-03-24T07:55:13.878Z,97445.47
2023-03-24T07:58:35.430Z,97438.55
2023-03-24T08:01:54.877Z,97438.71
2023-03-24T08:05:29.724Z,97438.65
2023-03-24T08:08:55.779Z,97429.50
2023-03-24T08:12:00.591Z,97435.52
2023-03-24T08:15:10.227Z,97434.60
2023-03-24T08:18:13.256Z,97430.17
2023-03-24T08:21:16.672Z,97426.29
2023-03-24T08:24:20.039Z,97426.89
2023-03-24T08:27:23.537Z,97425.44
2023-03-24T08:30:28.322Z,97423.56
2023-03-24T08:33:32.060Z,97417.88
2023-03-24T08:36:35.109Z,97416.34
2023-03-24T08:39:38.380Z,97420.80
2023-03-24T08:42:41.581Z,97412.46
2023-03-24T08:45:44.546Z,97411.80
2023-03-24T08:48:47.517Z,97412.27
2023-03-24T08:51:50.807Z,97410.71
2023-03-24T08:54:54.064Z,97400.52
2023-03-24T08:57:57.609Z,97401.39
2023-03-24T09:01:01.656Z,97396.38
2023-03-24T09:04:05.562Z,97392.09
2023-03-24T09:07:09.277Z,97385.16
2023-03-24T09:10:12.797Z,97387.81
2023-03-24T09:13:16.625Z,97385.93
2023-03-24T09:16:20.045Z,97378.34
2023-03-24T09:19:23.102Z,97380.46
2023-03-24T09:22:26.067Z,97370.73
2023-03-24T09:25:29.057Z,97363.89
2023-03-24T09:28:32.118Z,97367.47
2023-03-24T09:31:35.099Z,97365.51
2023-03-24T09:34:38.414Z,97361.30
2023-03-24T09:37:43.397Z,97353.33
2023-03-24T09:42:54.510Z,97347.27
2023-03-24T09:46:00.576Z,97345.57
2023-03-24T09:49:05.184Z,97342.98
2023-03-24T09:52:12.679Z,97339.02
2023-03-24T09:55:25.326Z,97337.02
2023-03-24T09:58:31.433Z,97335.47
2023-03-24T10:01:36.415Z,97334.97
2023-03-24T10:04:39.651Z,97338.98
2023-03-24T10:07:57.053Z,97338.01
2023-03-24T10:11:54.343Z,97333.27
2023-03-24T10:14:57.496Z,97329.00
2023-03-24T10:18:11.085Z,97335.44
2023-03-24T10:21:25.998Z,97332.66
2023-03-24T10:25:08.280Z,97329.06
2023-03-24T10:28:49.824Z,97328.05
2023-03-24T10:32:24.731Z,97316.52
2023-03-24T10:35:33.173Z,97313.70
2023-03-24T10:38:37.010Z,97308.49
2023-03-24T10:41:42.383Z,97304.20
2023-03-24T10:44:48.915Z,97299.33
2023-03-24T10:47:54.873Z,97294.95
2023-03-24T10:50:59.026Z,97298.69
2023-03-24T10:54:22.870Z,97305.52
2023-03-24T10:57:27.530Z,97303.33
2023-03-24T11:00:32.441Z,97300.63
2023-03-24T11:03:38.113Z,97302.94
2023-03-24T11:06:57.360Z,97295.64
2023-03-24T11:10:27.404Z,97294.55
2023-03-24T11:13:34.881Z,97290.33
2023-03-24T11:16:43.676Z,97287.63
2023-03-24T11:19:54.885Z,97281.48
2023-03-24T11:23:07.129Z,97277.73
2023-03-24T11:26:59.009Z,97274.12
2023-03-24T11:30:02.336Z,97271.30
2023-03-24T11:33:05.625Z,97269.24
2023-03-24T11:36:30.537Z,97266.30
2023-03-24T11:39:35.468Z,97253.08
2023-03-24T11:42:46.043Z,97249.55
2023-03-24T11:46:01.233Z,97245.36
2023-03-24T11:49:06.841Z,97241.37
2023-03-24T11:52:21.399Z,97239.81
2023-03-24T11:56:12.093Z,97230.36
2023-03-24T11:59:31.573Z,97228.85
2023-03-24T12:03:07.386Z,97227.46
2023-03-24T12:06:34.082Z,97223.79
2023-03-24T12:09:57.474Z,97231.55
2023-03-24T12:13:29.963Z,97221.79
2023-03-24T12:16:53.873Z,97218.66
2023-03-24T12:20:09.225Z,97211.83
2023-03-24T12:23:20.559Z,97211.45
2023-03-24T12:26:31.097Z,97213.80
2023-03-24T12:30:30.843Z,97208.14
2023-03-24T12:34:24.532Z,97206.23
2023-03-24T12:38:05.959Z,97209.25
2023-03-24T12:41:44.194Z,97203.86
2023-03-24T12:45:10.456Z,97199.92
2023-03-24T12:48:31.926Z,97198.02
2023-03-24T12:51:57.617Z,97193.19
2023-03-24T12:55:10.449Z,97194.77
2023-03-24T12:58:43.892Z,97190.73
2023-03-24T13:01:55.839Z,97183.30
2023-03-24T13:05:07.178Z,97179.30
2023-03-24T13:08:18.700Z,97175.17
2023-03-24T13:11:33.784Z,97176.17
2023-03-24T13:15:00.084Z,97171.83
2023-03-24T13:18:09.544Z,97172.06
2023-03-24T13:21:21.675Z,97172.90
2023-03-24T13:24:26.308Z,97170.27
2023-03-24T13:27:36.446Z,97168.88
2023-03-24T13:30:42.214Z,97168.68
2023-03-24T13:33:45.986Z,97165.14
2023-03-24T13:36:53.014Z,97165.48
2023-03-24T13:40:00.225Z,97162.18
2023-03-24T13:43:18.762Z,97158.52
2023-03-24T13:46:22.280Z,97153.98
2023-03-24T13:49:26.321Z,97147.02
2023-03-24T13:52:37.666Z,97146.48
2023-03-24T13:55:49.567Z,97143.73
2023-03-24T13:58:55.752Z,97140.30
2023-03-24T14:02:17.681Z,97136.14
2023-03-24T14:05:26.665Z,97131.05
2023-03-24T14:08:55.923Z,97131.48
2023-03-24T14:11:59.064Z,97136.15
2023-03-24T14:15:41.250Z,97135.80
2023-03-24T14:18:44.555Z,97124.60
2023-03-24T14:22:10.640Z,97115.20
2023-03-24T14:25:16.611Z,97107.73
2023-03-24T14:28:31.907Z,97101.23
2023-03-24T14:31:36.665Z,97096.63
2023-03-24T14:34:51.237Z,97095.68
2023-03-24T14:38:00.045Z,97093.04
2023-03-24T14:41:13.002Z,97090.10
2023-03-24T14:44:45.045Z,97088.46
2023-03-24T14:47:48.782Z,97087.92
2023-03-24T14:50:54.400Z,97089.42
2023-03-24T14:53:58.476Z,97083.96
2023-03-24T14:57:03.212Z,97084.17
2023-03-24T15:00:15.902Z,97082.35
2023-03-24T15:03:24.252Z,97087.88
2023-03-24T15:06:27.706Z,97080.26
2023-03-24T15:09:30.892Z,97082.02
2023-03-24T15:12:34.266Z,97076.88
2023-03-24T15:15:37.503Z,97068.78
2023-03-24T15:22:05.976Z,97078.40
2023-03-24T15:25:10.256Z,97082.76
2023-03-24T15:28:28.997Z,97083.74
2023-03-24T15:31:33.101Z,97090.02
2023-03-24T15:34:41.069Z,97090.83
2023-03-24T15:37:48.482Z,97089.52
2023-03-24T15:40:57.867Z,97088.09
2023-03-24T15:44:01.093Z,97087.14
2023-03-24T15:47:06.354Z,97087.73
2023-03-24T15:50:33.802Z,97092.02
2023-03-24T15:53:49.515Z,97092.27
2023-03-24T15:57:12.296Z,97097.43
2023-03-24T16:00:24.757Z,97089.13
2023-03-24T16:03:30.555Z,97089.84
2023-03-24T16:06:36.184Z,97094.07
2023-03-24T16:09:41.054Z,97098.25
2023-03-24T16:12:44.222Z,97108.67
2023-03-24T16:16:13.582Z,97111.90
2023-03-24T16:19:16.815Z,97110.55
2023-03-24T16:22:19.946Z,97108.61
2023-03-24T16:25:23.452Z,97109.25
2023-03-24T16:28:27.739Z,97104.13
2023-03-24T16:31:33.633Z,97108.15
2023-03-24T16:34:37.252Z,97106.96
2023-03-24T16:37:42.117Z,97102.77
2023-03-24T16:40:49.199Z,97098.97
2023-03-24T16:43:55.550Z,97095.31
2023-03-24T16:47:02.032Z,97091.74
2023-03-24T16:50:26.108Z,97085.54
2023-03-24T16:53:29.192Z,97063.62
2023-03-24T16:56:32.385Z,97075.28
2023-03-24T16:59:35.562Z,97078.48
2023-03-24T17:02:39.938Z,97088.15
2023-03-24T17:05:53.085Z,97088.92
2023-03-24T17:08:56.765Z,97095.33
2023-03-24T17:12:02.565Z,97092.85
2023-03-24T17:15:07.820Z,97102.86
2023-03-24T17:18:11.800Z,97112.90
2023-03-24T17:21:18.662Z,97118.01
2023-03-24T17:24:29.338Z,97122.31
2023-03-24T17:27:33.499Z,97134.75
2023-03-24T17:30:36.582Z,97139.94
2023-03-24T17:33:41.115Z,97150.00
2023-03-24T17:36:44.769Z,97146.82
2023-03-24T17:39:48.939Z,97146.78
2023-03-24T17:42:52.963Z,97146.52
2023-03-24T17:46:01.300Z,97143.84
2023-03-24T17:49:04.757Z,97148.42
2023-03-24T17:52:07.843Z,97150.19
2023-03-24T17:55:12.787Z,97144.05
2023-03-24T17:58:17.743Z,97138.19
2023-03-24T18:01:30.802Z,97128.23
2023-03-24T18:04:36.367Z,97128.86
2023-03-24T18:07:40.357Z,97128.84
2023-03-24T18:10:43.845Z,97125.91
2023-03-24T18:13:47.025Z,97116.37
2023-03-24T18:16:50.380Z,97105.65
2023-03-24T18:19:53.549Z,97104.52
2023-03-24T18:22:56.683Z,97103.14
2023-03-24T18:26:01.528Z,97100.63
2023-03-24T18:29:05.850Z,97106.21
2023-03-24T18:32:09.098Z,97118.62
2023-03-24T18:35:16.356Z,97133.45
2023-03-24T18:38:23.835Z,97146.59
2023-03-24T18:41:29.905Z,97148.73
2023-03-24T18:44:33.321Z,97154.08
2023-03-24T18:47:36.710Z,97145.71
2023-03-24T18:50:40.731Z,97133.67
2023-03-24T18:53:44.092Z,97134.19
2023-03-24T18:56:47.259Z,97138.34
2023-03-24T18:59:50.758Z,97137.31
2023-03-24T19:02:54.074Z,97140.46
2023-03-24T19:06:00.929Z,97135.06
2023-03-24T19:09:05.449Z,97133.70
2023-03-24T19:12:09.216Z,97132.27
2023-03-24T19:15:13.626Z,97133.19
2023-03-24T19:18:16.893Z,97138.39
2023-03-24T19:21:24.497Z,97137.80
2023-03-24T19:24:28.135Z,97140.56
2023-03-24T19:27:31.358Z,97144.45
2023-03-24T19:30:34.451Z,97139.33
2023-03-24T19:33:38.129Z,97143.95
2023-03-24T19:36:41.738Z,97137.67
2023-03-24T19:39:46.071Z,97141.98
2023-03-24T19:42:49.170Z,97135.52
2023-03-24T19:45:54.019Z,97136.08
2023-03-24T19:48:57.127Z,97136.70
2023-03-24T19:52:00.362Z,97132.05
2023-03-24T19:55:06.577Z,97130.83
2023-03-24T19:58:09.735Z,97128.66
2023-03-24T20:01:13.129Z,97127.55
2023-03-24T20:04:17.033Z,97134.54
2023-03-24T20:07:20.351Z,97138.08
2023-03-24T20:10:23.811Z,97135.34
2023-03-24T20:13:27.691Z,97136.09
2023-03-24T20:16:31.501Z,97139.42
2023-03-24T20:19:34.608Z,97139.96
2023-03-24T20:22:42.209Z,97137.65
2023-03-24T20:25:45.323Z,97137.38
2023-03-24T20:28:48.658Z,97140.13
2023-03-24T20:31:52.403Z,97141.29
2023-03-24T20:34:55.640Z,97143.04
2023-03-24T20:37:58.760Z,97145.53
2023-03-24T20:41:05.708Z,97146.36
2023-03-24T20:44:09.166Z,97144.48
2023-03-24T20:47:12.226Z,97143.25
2023-03-24T20:50:15.390Z,97146.31
2023-03-24T20:53:18.939Z,97142.98
2023-03-24T20:56:22.453Z,97142.33
2023-03-24T20:59:26.209Z,97131.66
2023-03-24T21:02:31.786Z,97133.39
2023-03-24T21:05:35.259Z,97135.38
2023-03-24T21:08:38.356Z,97140.52
2023-03-24T21:11:41.523Z,97142.64
2023-03-24T21:14:46.817Z,97144.14
2023-03-24T21:17:50.287Z,97149.64
2023-03-24T21:20:56.366Z,97142.92
2023-03-24T21:24:00.842Z,97147.44
2023-03-24T21:27:04.056Z,97149.46
2023-03-24T21:30:08.237Z,97149.15
2023-03-24T21:33:11.829Z,97151.27
2023-03-24T21:36:15.685Z,97155.86
2023-03-24T21:39:18.798Z,97163.55
2023-03-24T21:42:22.864Z,97171.91
2023-03-24T21:45:27.670Z,97170.09
2023-03-24T21:48:32.939Z,97171.91
2023-03-24T21:51:36.946Z,97170.01
2023-03-24T21:54:40.205Z,97175.94
2023-03-24T21:57:48.186Z,97163.76
2023-03-24T22:00:52.058Z,97154.14
2023-03-24T22:03:55.976Z,97149.58
2023-03-24T22:06:59.203Z,97153.80
2023-03-24T22:10:03.330Z,97153.45
2023-03-24T22:13:06.371Z,97153.55
2023-03-24T22:16:10.033Z,97151.26
2023-03-24T22:19:13.178Z,97153.27
2023-03-24T22:22:16.330Z,97154.24
2023-03-24T22:25:20.014Z,97152.39
2023-03-24T22:28:23.091Z,97147.31
2023-03-24T22:31:26.396Z,97148.03
2023-03-24T22:34:29.528Z,97145.16
2023-03-24T22:37:33.490Z,97145.11
2023-03-24T22:40:37.846Z,97142.45
2023-03-24T22:43:41.884Z,97141.55
2023-03-24T22:46:45.343Z,97141.13
2023-03-24T22:49:48.440Z,97134.83
2023-03-24T22:52:51.787Z,97133.45
2023-03-24T22:55:54.956Z,97129.72
2023-03-24T22:58:58.104Z,97132.98
2023-03-24T23:02:09.232Z,97139.20
2023-03-24T23:05:13.500Z,97136.53
2023-03-24T23:08:16.698Z,97138.08
2023-03-24T23:11:19.901Z,97130.75
2023-03-24T23:14:25.530Z,97125.79
2023-03-24T23:17:28.728Z,97122.74
2023-03-24T23:20:31.895Z,97125.81
2023-03-24T23:23:36.375Z,97127.34
2023-03-24T23:26:39.492Z,97137.82
2023-03-24T23:29:42.597Z,97139.63
2023-03-24T23:32:47.064Z,97142.43
2023-03-24T23:35:56.202Z,97137.85
2023-03-24T23:38:59.353Z,97141.05
2023-03-24T23:42:03.371Z,97140.07
2023-03-24T23:45:07.648Z,97138.74
2023-03-24T23:48:10.967Z,97135.23
2023-03-24T23:51:14.372Z,97143.26
2023-03-24T23:54:17.535Z,97137.82
2023-03-24T23:57:20.683Z,97141.43
